createdAt,value
2019-05-03T00:02:23.079Z,9.00
2019-05-03T00:07:27.735Z,9.20
2019-05-03T00:09:56.236Z,9.20
2019-05-03T00:12:24.672Z,9.40
2019-05-03T00:14:57.579Z,9.30
2019-05-03T00:17:26.042Z,9.00
2019-05-03T00:19:54.556Z,9.40
2019-05-03T00:22:23.048Z,9.20
2019-05-03T00:25:03.094Z,9.20
2019-05-03T00:32:21.657Z,8.90
2019-05-03T00:37:38.230Z,9.10
2019-05-03T00:40:09.275Z,9.10
2019-05-03T00:42:37.858Z,9.20
2019-05-03T00:45:09.762Z,9.30
2019-05-03T00:47:38.234Z,9.30
2019-05-03T00:50:06.904Z,8.80
2019-05-03T00:55:15.693Z,9.50
2019-05-03T01:00:02.631Z,9.20
2019-05-03T01:02:31.822Z,9.40
2019-05-03T01:07:28.665Z,9.20
2019-05-03T01:09:57.114Z,9.10
2019-05-03T01:12:25.566Z,9.30
2019-05-03T01:17:23.760Z,9.30
2019-05-03T01:19:52.279Z,9.10
2019-05-03T01:22:22.466Z,9.40
2019-05-03T01:24:51.849Z,9.40
2019-05-03T01:27:21.963Z,9.20
2019-05-03T01:32:22.305Z,9.00
2019-05-03T01:37:22.502Z,8.70
2019-05-03T01:39:52.645Z,9.00
2019-05-03T01:42:22.691Z,9.20
2019-05-03T01:44:52.262Z,9.30
2019-05-03T01:47:22.606Z,9.00
2019-05-03T01:50:04.894Z,9.00
2019-05-03T01:52:34.979Z,9.00
2019-05-03T01:55:03.902Z,9.30
2019-05-03T01:57:32.533Z,9.10
2019-05-03T02:00:02.796Z,8.70
2019-05-03T02:02:33.131Z,9.20
2019-05-03T02:05:15.234Z,9.40
2019-05-03T02:07:43.691Z,9.40
2019-05-03T02:10:12.576Z,8.90
2019-05-03T02:15:11.847Z,9.20
2019-05-03T02:17:42.526Z,9.20
2019-05-03T02:20:12.660Z,9.50
2019-05-03T02:22:42.820Z,9.20
2019-05-03T02:25:12.365Z,9.20
2019-05-03T02:27:42.204Z,9.40
2019-05-03T02:30:14.328Z,9.30
2019-05-03T02:32:44.062Z,8.70
2019-05-03T02:35:13.996Z,8.90
2019-05-03T02:37:44.131Z,9.00
2019-05-03T02:40:13.304Z,9.30
2019-05-03T02:42:46.124Z,9.20
2019-05-03T02:45:18.034Z,9.20
2019-05-03T02:47:48.161Z,9.10
2019-05-03T02:50:18.599Z,9.00
2019-05-03T02:52:47.144Z,9.20
2019-05-03T02:55:16.430Z,9.10
2019-05-03T02:57:46.691Z,9.00
2019-05-03T03:00:16.592Z,8.90
2019-05-03T03:02:45.769Z,8.80
2019-05-03T03:05:16.631Z,9.00
2019-05-03T03:07:46.723Z,8.70
2019-05-03T03:10:16.520Z,9.30
2019-05-03T03:12:46.955Z,9.10
2019-05-03T03:15:16.376Z,9.00
2019-05-03T03:17:47.027Z,8.70
2019-05-03T03:20:16.229Z,9.00
2019-05-03T03:22:45.887Z,9.30
2019-05-03T03:25:17.649Z,9.20
2019-05-03T03:33:08.732Z,8.90
2019-05-03T03:35:39.200Z,8.90
2019-05-03T03:38:07.950Z,8.80
2019-05-03T03:40:37.967Z,8.80
2019-05-03T03:43:08.279Z,8.90
2019-05-03T03:45:38.673Z,8.90
2019-05-03T03:48:10.361Z,8.80
2019-05-03T03:50:41.713Z,8.70
2019-05-03T03:55:42.610Z,8.90
2019-05-03T03:58:11.204Z,8.80
2019-05-03T04:00:40.042Z,9.00
2019-05-03T04:05:36.836Z,8.70
2019-05-03T04:08:05.758Z,8.90
2019-05-03T04:10:35.254Z,9.00
2019-05-03T04:13:05.791Z,9.00
2019-05-03T04:15:52.145Z,9.20
2019-05-03T04:18:25.524Z,9.00
2019-05-03T04:20:55.946Z,9.10
2019-05-03T04:23:26.333Z,9.00
2019-05-03T04:25:56.579Z,9.10
2019-05-03T04:28:25.506Z,8.80
2019-05-03T04:30:55.416Z,8.90
2019-05-03T04:33:26.597Z,9.20
2019-05-03T04:35:55.706Z,9.20
2019-05-03T04:43:26.387Z,9.00
2019-05-03T04:46:01.898Z,8.80
2019-05-03T04:48:30.446Z,8.80
2019-05-03T04:50:59.064Z,9.10
2019-05-03T04:53:27.968Z,9.20
2019-05-03T04:55:56.445Z,9.30
2019-05-03T04:58:25.803Z,9.30
2019-05-03T05:03:26.427Z,9.10
2019-05-03T05:05:55.497Z,8.80
2019-05-03T05:08:25.280Z,9.10
2019-05-03T05:10:55.981Z,9.40
2019-05-03T05:13:25.028Z,9.30
2019-05-03T05:15:55.129Z,9.50
2019-05-03T05:21:00.395Z,9.50
2019-05-03T05:23:29.003Z,9.20
2019-05-03T05:31:04.812Z,9.60
2019-05-03T05:33:35.241Z,9.30
2019-05-03T05:36:04.864Z,9.40
2019-05-03T05:38:34.633Z,9.30
2019-05-03T05:41:05.162Z,9.50
2019-05-03T05:43:35.520Z,9.50
2019-05-03T05:46:05.349Z,9.00
2019-05-03T05:48:35.651Z,9.60
2019-05-03T05:51:04.502Z,9.50
2019-05-03T05:56:11.811Z,9.70
2019-05-03T05:58:55.385Z,9.70
2019-05-03T06:01:45.625Z,9.60
2019-05-03T06:04:15.388Z,9.50
2019-05-03T06:06:48.413Z,9.70
2019-05-03T06:09:18.496Z,9.40
2019-05-03T06:11:55.394Z,9.60
2019-05-03T06:19:40.087Z,9.60
2019-05-03T06:27:18.803Z,9.70
2019-05-03T06:29:48.714Z,9.60
2019-05-03T06:32:18.830Z,9.60
2019-05-03T06:34:47.282Z,9.90
2019-05-03T06:37:20.351Z,9.80
2019-05-03T06:47:15.052Z,10.00
2019-05-03T06:52:14.766Z,10.00
2019-05-03T06:54:44.922Z,9.80
2019-05-03T06:57:15.355Z,10.00
2019-05-03T07:02:19.141Z,10.00
2019-05-03T07:04:49.256Z,9.90
2019-05-03T07:07:35.501Z,10.00
2019-05-03T07:10:11.961Z,10.10
2019-05-03T07:15:28.593Z,10.00
2019-05-03T07:17:57.124Z,9.90
2019-05-03T07:20:25.803Z,10.20
2019-05-03T07:22:55.948Z,10.30
2019-05-03T07:25:25.648Z,10.40
2019-05-03T07:27:55.541Z,10.50
2019-05-03T07:30:24.902Z,10.50
2019-05-03T07:32:55.188Z,10.30
2019-05-03T07:35:25.151Z,10.50
2019-05-03T07:37:55.333Z,10.50
2019-05-03T07:40:25.351Z,10.50
2019-05-03T07:42:55.422Z,10.80
2019-05-03T07:45:25.412Z,10.60
2019-05-03T07:47:55.831Z,10.50
2019-05-03T07:50:25.836Z,11.10
2019-05-03T07:52:55.531Z,10.80
2019-05-03T07:55:42.309Z,10.80
2019-05-03T07:58:12.396Z,11.00
2019-05-03T08:00:40.951Z,11.10
2019-05-03T08:03:09.393Z,11.20
2019-05-03T08:05:37.865Z,11.30
2019-05-03T08:08:06.311Z,11.40
2019-05-03T08:10:34.807Z,11.40
2019-05-03T08:13:04.631Z,11.50
2019-05-03T08:15:34.818Z,11.60
2019-05-03T08:18:04.858Z,11.60
2019-05-03T08:20:35.083Z,11.30
2019-05-03T08:23:05.291Z,11.60
2019-05-03T08:25:35.419Z,11.60
2019-05-03T08:28:05.312Z,11.70
2019-05-03T08:30:51.881Z,11.80
2019-05-03T08:33:38.367Z,11.80
2019-05-03T08:36:06.919Z,11.90
2019-05-03T08:38:35.361Z,11.80
2019-05-03T08:41:05.546Z,11.80
2019-05-03T08:43:35.673Z,11.90
2019-05-03T08:46:04.671Z,11.80
2019-05-03T08:48:35.299Z,11.80
2019-05-03T08:51:04.541Z,11.80
2019-05-03T08:53:35.616Z,11.80
2019-05-03T08:56:05.316Z,11.80
2019-05-03T08:58:34.849Z,11.80
2019-05-03T09:01:05.573Z,11.80
2019-05-03T09:03:36.366Z,11.90
2019-05-03T09:06:04.903Z,11.90
2019-05-03T09:08:38.038Z,12.00
2019-05-03T09:11:15.387Z,12.00
2019-05-03T09:14:04.957Z,11.90
2019-05-03T09:16:39.835Z,11.90
2019-05-03T09:19:08.165Z,11.70
2019-05-03T09:21:40.233Z,11.60
2019-05-03T09:24:10.176Z,11.40
2019-05-03T09:26:44.801Z,11.30
2019-05-03T09:29:20.342Z,10.80
2019-05-03T09:31:55.295Z,10.90
2019-05-03T09:34:26.999Z,11.00
2019-05-03T09:36:57.376Z,10.90
2019-05-03T09:39:29.181Z,11.10
2019-05-03T09:42:08.367Z,11.20
2019-05-03T09:44:45.051Z,11.30
2019-05-03T09:47:22.310Z,11.40
2019-05-03T09:49:56.420Z,11.50
2019-05-03T09:52:25.214Z,11.70
2019-05-03T09:55:09.107Z,11.70
2019-05-03T09:57:44.467Z,12.00
2019-05-03T10:00:17.278Z,12.10
2019-05-03T10:02:47.347Z,12.20
2019-05-03T10:05:20.132Z,12.10
2019-05-03T10:08:00.665Z,11.60
2019-05-03T10:10:27.585Z,12.10
2019-05-03T10:13:00.593Z,10.60
2019-05-03T10:15:38.476Z,10.10
2019-05-03T10:18:11.814Z,10.00
2019-05-03T10:20:45.162Z,9.40
2019-05-03T10:23:19.838Z,9.40
2019-05-03T10:25:55.123Z,9.40
2019-05-03T10:28:28.162Z,9.20
2019-05-03T10:30:59.714Z,9.20
2019-05-03T10:33:35.798Z,9.20
2019-05-03T10:36:09.167Z,9.40
2019-05-03T10:38:45.830Z,9.60
2019-05-03T10:41:14.605Z,9.80
2019-05-03T10:43:47.384Z,10.60
2019-05-03T10:46:19.500Z,10.60
2019-05-03T10:48:51.500Z,11.90
2019-05-03T10:51:25.338Z,12.40
2019-05-03T10:53:59.727Z,12.30
2019-05-03T10:56:42.291Z,12.40
2019-05-03T10:59:09.356Z,13.60
2019-05-03T11:01:56.194Z,13.40
2019-05-03T11:04:25.713Z,13.80
2019-05-03T11:07:00.236Z,14.00
2019-05-03T11:09:47.594Z,14.30
2019-05-03T11:12:10.396Z,14.80
2019-05-03T11:14:42.111Z,15.70
2019-05-03T11:17:15.130Z,15.80
2019-05-03T11:19:47.020Z,15.70
2019-05-03T11:22:20.602Z,15.20
2019-05-03T11:24:51.141Z,14.30
2019-05-03T11:27:26.485Z,13.90
2019-05-03T11:29:59.565Z,13.70
2019-05-03T11:32:35.308Z,13.40
2019-05-03T11:35:08.095Z,13.20
2019-05-03T11:37:41.182Z,13.30
2019-05-03T11:40:19.904Z,13.40
2019-05-03T11:42:52.071Z,13.30
2019-05-03T11:45:24.501Z,13.30
2019-05-03T11:47:55.831Z,13.40
2019-05-03T11:50:28.257Z,13.60
2019-05-03T11:52:58.731Z,14.10
2019-05-03T11:55:37.212Z,14.10
2019-05-03T11:58:21.877Z,14.30
2019-05-03T12:01:11.901Z,14.30
2019-05-03T12:03:37.062Z,13.90
2019-05-03T12:06:10.455Z,14.10
2019-05-03T12:08:45.903Z,13.70
2019-05-03T12:11:16.032Z,13.50
2019-05-03T12:14:01.702Z,13.80
2019-05-03T12:16:59.870Z,13.40
2019-05-03T12:19:15.731Z,13.40
2019-05-03T12:21:37.651Z,13.40
2019-05-03T12:24:09.020Z,13.20
2019-05-03T12:26:46.326Z,13.60
2019-05-03T12:29:12.755Z,13.70
2019-05-03T12:31:46.676Z,13.50
2019-05-03T12:34:25.758Z,13.40
2019-05-03T12:36:52.750Z,13.40
2019-05-03T12:39:29.991Z,13.20
2019-05-03T12:42:01.870Z,13.30
2019-05-03T12:44:35.646Z,13.10
2019-05-03T12:47:10.003Z,13.10
2019-05-03T12:49:48.845Z,13.10
2019-05-03T12:52:17.966Z,13.20
2019-05-03T12:54:46.822Z,13.20
2019-05-03T12:57:15.523Z,13.20
2019-05-03T12:59:48.616Z,13.10
2019-05-03T13:04:48.190Z,13.00
2019-05-03T13:07:34.782Z,12.90
2019-05-03T13:10:05.276Z,12.70
2019-05-03T13:12:34.709Z,12.40
2019-05-03T13:15:05.053Z,12.30
2019-05-03T13:17:36.777Z,12.50
2019-05-03T13:20:08.292Z,12.30
2019-05-03T13:22:36.868Z,12.40
2019-05-03T13:25:07.734Z,12.00
2019-05-03T13:27:36.244Z,11.40
2019-05-03T13:30:09.432Z,11.30
2019-05-03T13:32:37.964Z,11.00
2019-05-03T13:35:07.150Z,10.70
2019-05-03T13:37:35.937Z,10.70
2019-05-03T13:40:06.441Z,10.10
2019-05-03T13:42:35.228Z,10.20
2019-05-03T13:45:05.831Z,10.30
2019-05-03T13:47:35.075Z,10.00
2019-05-03T13:50:07.886Z,9.70
2019-05-03T13:52:36.314Z,9.70
2019-05-03T13:57:35.409Z,9.50
2019-05-03T14:00:08.632Z,9.70
2019-05-03T14:02:37.092Z,10.10
2019-05-03T14:05:07.444Z,10.10
2019-05-03T14:07:35.934Z,10.40
2019-05-03T14:10:07.316Z,10.60
2019-05-03T14:12:35.792Z,10.70
2019-05-03T14:15:06.565Z,10.80
2019-05-03T14:17:35.928Z,10.80
2019-05-03T14:20:26.243Z,11.10
2019-05-03T14:22:54.809Z,11.70
2019-05-03T14:25:24.687Z,11.70
2019-05-03T14:27:54.952Z,11.90
2019-05-03T14:30:25.325Z,12.10
2019-05-03T14:32:55.712Z,12.10
2019-05-03T14:35:25.079Z,12.10
2019-05-03T14:37:55.042Z,12.10
2019-05-03T14:40:25.154Z,12.30
2019-05-03T14:42:55.450Z,12.10
2019-05-03T14:45:25.527Z,12.20
2019-05-03T14:47:54.714Z,12.30
2019-05-03T14:50:25.478Z,12.40
2019-05-03T14:52:54.574Z,12.40
2019-05-03T14:55:28.731Z,12.40
2019-05-03T14:57:58.825Z,12.50
2019-05-03T15:00:29.083Z,12.50
2019-05-03T15:02:59.160Z,12.60
2019-05-03T15:05:27.621Z,12.70
2019-05-03T15:07:56.166Z,12.80
2019-05-03T15:10:24.675Z,12.80
2019-05-03T15:12:53.143Z,12.70
2019-05-03T15:15:21.695Z,12.60
2019-05-03T15:17:50.131Z,12.70
2019-05-03T15:20:18.675Z,12.80
2019-05-03T15:22:47.197Z,13.10
2019-05-03T15:25:15.897Z,13.10
2019-05-03T15:27:44.833Z,13.10
2019-05-03T15:30:15.521Z,13.20
2019-05-03T15:32:56.657Z,13.10
2019-05-03T15:35:15.222Z,12.80
2019-05-03T15:37:45.371Z,12.90
2019-05-03T15:40:15.649Z,12.90
2019-05-03T15:42:46.011Z,13.00
2019-05-03T15:45:18.969Z,13.00
2019-05-03T15:48:01.251Z,13.10
2019-05-03T15:50:29.758Z,13.20
2019-05-03T15:52:58.240Z,13.20
2019-05-03T15:55:26.692Z,13.20
2019-05-03T15:57:55.342Z,13.20
2019-05-03T16:00:24.451Z,13.20
2019-05-03T16:02:54.722Z,13.20
2019-05-03T16:05:25.127Z,13.10
2019-05-03T16:07:55.317Z,13.10
2019-05-03T16:10:24.924Z,13.10
2019-05-03T16:12:54.588Z,13.10
2019-05-03T16:15:24.644Z,13.10
2019-05-03T16:17:54.712Z,13.10
2019-05-03T16:20:25.130Z,13.00
2019-05-03T16:22:54.475Z,13.10
2019-05-03T16:25:25.145Z,13.00
2019-05-03T16:27:58.526Z,12.80
2019-05-03T16:30:28.703Z,12.90
2019-05-03T16:32:57.200Z,13.10
2019-05-03T16:35:25.756Z,12.90
2019-05-03T16:37:54.432Z,12.90
2019-05-03T16:40:25.158Z,12.90
2019-05-03T16:42:53.293Z,12.70
2019-05-03T16:45:21.770Z,12.80
2019-05-03T16:47:50.308Z,12.70
2019-05-03T16:50:18.894Z,12.70
2019-05-03T16:52:47.350Z,12.50
2019-05-03T16:55:16.471Z,12.70
2019-05-03T16:57:45.062Z,12.70
2019-05-03T17:00:15.366Z,12.40
2019-05-03T17:05:31.315Z,12.30
2019-05-03T17:08:17.840Z,12.50
2019-05-03T17:10:47.920Z,12.40
2019-05-03T17:13:16.410Z,12.40
2019-05-03T17:15:44.902Z,12.40
2019-05-03T17:18:14.713Z,12.20
2019-05-03T17:20:45.201Z,12.30
2019-05-03T17:23:15.457Z,12.30
2019-05-03T17:25:44.492Z,12.50
2019-05-03T17:28:13.266Z,12.20
2019-05-03T17:30:41.738Z,12.00
2019-05-03T17:33:10.218Z,11.90
2019-05-03T17:35:38.716Z,12.30
2019-05-03T17:38:07.334Z,12.00
2019-05-03T17:40:49.422Z,12.00
2019-05-03T17:45:49.395Z,11.70
2019-05-03T17:48:25.454Z,11.90
2019-05-03T17:53:37.798Z,11.40
2019-05-03T17:58:57.732Z,11.50
2019-05-03T18:01:44.574Z,11.60
2019-05-03T18:07:11.544Z,11.60
2019-05-03T18:12:15.016Z,11.50
2019-05-03T18:17:14.798Z,11.30
2019-05-03T18:27:11.550Z,11.20
2019-05-03T18:29:40.079Z,11.10
2019-05-03T18:39:34.712Z,11.10
2019-05-03T18:42:05.017Z,11.30
2019-05-03T18:47:28.146Z,11.20
2019-05-03T18:52:24.856Z,11.00
2019-05-03T18:54:55.144Z,10.90
2019-05-03T18:59:55.461Z,11.00
2019-05-03T19:02:24.751Z,11.10
2019-05-03T19:04:54.612Z,11.10
2019-05-03T19:07:41.285Z,11.20
2019-05-03T19:10:26.729Z,11.00
2019-05-03T19:12:59.593Z,11.00
2019-05-03T19:20:30.523Z,10.60
2019-05-03T19:22:59.151Z,10.60
2019-05-03T19:25:27.675Z,10.20
2019-05-03T19:27:56.187Z,10.70
2019-05-03T19:35:21.318Z,10.50
2019-05-03T19:40:17.976Z,10.70
2019-05-03T19:42:46.415Z,10.60
2019-05-03T19:45:15.270Z,10.40
2019-05-03T19:47:44.783Z,10.70
2019-05-03T19:52:55.538Z,10.50
2019-05-03T19:57:52.215Z,10.60
2019-05-03T20:00:20.778Z,10.10
2019-05-03T20:02:54.455Z,10.40
2019-05-03T20:05:44.791Z,10.40
2019-05-03T20:08:20.584Z,10.70
2019-05-03T20:10:49.169Z,10.30
2019-05-03T20:15:45.834Z,10.60
2019-05-03T20:20:44.715Z,10.40
2019-05-03T20:23:14.612Z,10.80
2019-05-03T20:25:43.309Z,10.60
2019-05-03T20:33:08.062Z,10.20
2019-05-03T20:38:04.648Z,10.30
2019-05-03T20:40:34.954Z,10.50
2019-05-03T20:43:10.817Z,10.40
2019-05-03T20:45:44.563Z,10.30
2019-05-03T20:48:14.757Z,10.00
2019-05-03T20:53:13.232Z,10.10
2019-05-03T20:55:41.696Z,10.20
2019-05-03T20:58:11.404Z,10.10
2019-05-03T21:00:40.001Z,10.30
2019-05-03T21:03:08.487Z,10.10
2019-05-03T21:08:06.222Z,10.30
2019-05-03T21:10:34.746Z,10.10
2019-05-03T21:13:05.298Z,10.20
2019-05-03T21:18:18.192Z,10.10
2019-05-03T21:21:06.493Z,10.10
2019-05-03T21:23:36.674Z,9.60
2019-05-03T21:26:13.210Z,10.00
2019-05-03T21:28:37.917Z,9.80
2019-05-03T21:31:06.726Z,9.70
2019-05-03T21:33:35.624Z,9.60
2019-05-03T21:36:04.738Z,9.60
2019-05-03T21:38:35.207Z,9.80
2019-05-03T21:41:05.136Z,9.50
2019-05-03T21:46:11.202Z,9.50
2019-05-03T21:48:59.352Z,9.60
2019-05-03T21:51:27.859Z,9.60
2019-05-03T21:56:25.062Z,9.50
2019-05-03T21:58:55.326Z,9.50
2019-05-03T22:01:25.956Z,9.20
2019-05-03T22:03:54.355Z,9.30
2019-05-03T22:11:20.869Z,9.40
2019-05-03T22:13:50.951Z,9.00
2019-05-03T22:16:21.081Z,9.20
2019-05-03T22:18:49.525Z,9.10
2019-05-03T22:26:50.699Z,9.40
2019-05-03T22:29:19.213Z,9.20
2019-05-03T22:31:47.736Z,9.50
2019-05-03T22:34:16.323Z,9.00
2019-05-03T22:39:13.121Z,8.90
2019-05-03T22:41:41.599Z,9.20
2019-05-03T22:44:10.047Z,9.20
2019-05-03T22:49:06.637Z,8.90
2019-05-03T22:51:35.073Z,9.00
2019-05-03T22:59:01.471Z,8.70
2019-05-03T23:03:58.147Z,8.90
2019-05-03T23:11:24.791Z,8.70
2019-05-03T23:13:54.998Z,8.60
2019-05-03T23:16:24.767Z,8.50
2019-05-03T23:18:54.789Z,8.20
2019-05-03T23:23:54.832Z,8.00
2019-05-03T23:26:25.377Z,8.00
2019-05-03T23:28:55.126Z,7.50
2019-05-03T23:31:25.140Z,8.00
2019-05-03T23:36:32.834Z,7.80
2019-05-03T23:41:24.589Z,7.70
2019-05-03T23:43:53.173Z,7.40
2019-05-03T23:46:25.192Z,7.80
2019-05-03T23:51:39.576Z,7.00
2019-05-03T23:54:08.048Z,7.10
2019-05-03T23:56:36.722Z,7.40
